sensor_id;sensor_type;location;lat;lon;timestamp;pressure;altitude;pressure_sealevel;temperature;humidity
85163;BME280;75527;48.526;9.158;2024-03-23T00:52:06;96576.38;;;7.45;69.61
85163;BME280;75527;48.526;9.158;2024-03-23T00:54:31;96567.44;;;7.46;69.77
85163;BME280;75527;48.526;9.158;2024-03-23T00:56:57;96568.16;;;7.31;69.73
85163;BME280;75527;48.526;9.158;2024-03-23T00:59:22;96570.56;;;7.43;70.12
85163;BME280;75527;48.526;9.158;2024-03-23T01:01:52;96565.56;;;7.41;70.58
85163;BME280;75527;48.526;9.158;2024-03-23T01:04:17;96564.00;;;7.40;70.21
85163;BME280;75527;48.526;9.158;2024-03-23T01:06:43;96556.84;;;7.30;70.53
85163;BME280;75527;48.526;9.158;2024-03-23T01:09:08;96545.75;;;7.18;71.42
85163;BME280;75527;48.526;9.158;2024-03-23T01:11:35;96549.72;;;7.26;70.60
85163;BME280;75527;48.526;9.158;2024-03-23T01:14:01;96535.22;;;7.18;70.55
85163;BME280;75527;48.526;9.158;2024-03-23T01:16:26;96553.91;;;7.22;70.78
85163;BME280;75527;48.526;9.158;2024-03-23T01:18:51;96543.13;;;7.23;71.64
85163;BME280;75527;48.526;9.158;2024-03-23T01:21:17;96514.97;;;7.09;70.77
85163;BME280;75527;48.526;9.158;2024-03-23T01:23:42;96526.03;;;7.16;71.15
85163;BME280;75527;48.526;9.158;2024-03-23T01:26:08;96532.03;;;7.06;71.21
85163;BME280;75527;48.526;9.158;2024-03-23T01:28:33;96517.56;;;6.98;71.47
85163;BME280;75527;48.526;9.158;2024-03-23T01:30:58;96537.25;;;6.96;71.36
85163;BME280;75527;48.526;9.158;2024-03-23T01:33:23;96528.53;;;6.90;73.21
85163;BME280;75527;48.526;9.158;2024-03-23T01:35:49;96537.25;;;6.96;72.51
85163;BME280;75527;48.526;9.158;2024-03-23T01:38:14;96507.78;;;6.89;72.57
85163;BME280;75527;48.526;9.158;2024-03-23T01:40:39;96517.53;;;6.93;73.07
85163;BME280;75527;48.526;9.158;2024-03-23T01:43:07;96510.78;;;7.23;73.41
85163;BME280;75527;48.526;9.158;2024-03-23T01:45:35;96500.28;;;7.28;72.41
85163;BME280;75527;48.526;9.158;2024-03-23T01:48:01;96497.16;;;7.31;71.11
85163;BME280;75527;48.526;9.158;2024-03-23T01:50:28;96482.41;;;7.20;71.95
85163;BME280;75527;48.526;9.158;2024-03-23T01:52:56;96492.19;;;7.35;72.48
85163;BME280;75527;48.526;9.158;2024-03-23T01:55:21;96493.22;;;7.39;71.16
85163;BME280;75527;48.526;9.158;2024-03-23T01:57:47;96482.19;;;7.37;71.43
85163;BME280;75527;48.526;9.158;2024-03-23T02:00:13;96482.16;;;7.31;72.25
85163;BME280;75527;48.526;9.158;2024-03-23T02:05:08;96477.16;;;7.30;72.72
85163;BME280;75527;48.526;9.158;2024-03-23T02:07:33;96469.31;;;7.50;71.30
85163;BME280;75527;48.526;9.158;2024-03-23T02:10:00;96468.25;;;7.46;72.02
85163;BME280;75527;48.526;9.158;2024-03-23T02:12:25;96467.72;;;7.49;72.11
85163;BME280;75527;48.526;9.158;2024-03-23T02:14:51;96459.84;;;7.60;72.66
85163;BME280;75527;48.526;9.158;2024-03-23T02:17:16;96455.41;;;7.75;71.88
85163;BME280;75527;48.526;9.158;2024-03-23T02:19:41;96453.81;;;7.79;70.86
85163;BME280;75527;48.526;9.158;2024-03-23T02:22:07;96429.09;;;7.75;71.78
85163;BME280;75527;48.526;9.158;2024-03-23T02:24:32;96407.22;;;7.65;71.30
85163;BME280;75527;48.526;9.158;2024-03-23T02:26:59;96425.41;;;7.71;70.75
85163;BME280;75527;48.526;9.158;2024-03-23T02:29:24;96430.66;;;7.76;71.35
85163;BME280;75527;48.526;9.158;2024-03-23T02:31:49;96430.38;;;7.73;70.88
85163;BME280;75527;48.526;9.158;2024-03-23T02:34:15;96439.06;;;7.68;71.58
85163;BME280;75527;48.526;9.158;2024-03-23T02:36:40;96430.91;;;7.60;71.86
85163;BME280;75527;48.526;9.158;2024-03-23T02:39:05;96426.69;;;7.58;72.30
85163;BME280;75527;48.526;9.158;2024-03-23T02:41:30;96363.81;;;7.26;72.23
85163;BME280;75527;48.526;9.158;2024-03-23T02:43:56;96418.03;;;7.78;72.31
85163;BME280;75527;48.526;9.158;2024-03-23T02:46:21;96431.16;;;7.94;72.09
85163;BME280;75527;48.526;9.158;2024-03-23T02:48:48;96428.50;;;8.14;71.27
85163;BME280;75527;48.526;9.158;2024-03-23T02:51:14;96418.00;;;8.09;70.45
85163;BME280;75527;48.526;9.158;2024-03-23T02:53:39;96426.66;;;8.15;70.27
85163;BME280;75527;48.526;9.158;2024-03-23T02:56:04;96402.19;;;8.09;70.05
85163;BME280;75527;48.526;9.158;2024-03-23T02:58:30;96406.94;;;8.12;71.50
85163;BME280;75527;48.526;9.158;2024-03-23T03:00:55;96417.44;;;8.32;69.93
85163;BME280;75527;48.526;9.158;2024-03-23T03:03:20;96406.09;;;8.37;69.86
85163;BME280;75527;48.526;9.158;2024-03-23T03:05:46;96401.09;;;8.41;68.87
85163;BME280;75527;48.526;9.158;2024-03-23T03:08:11;96387.63;;;8.32;69.28
85163;BME280;75527;48.526;9.158;2024-03-23T03:10:36;96415.00;;;8.51;69.12
85163;BME280;75527;48.526;9.158;2024-03-23T03:13:02;96391.84;;;8.48;69.77
85163;BME280;75527;48.526;9.158;2024-03-23T03:15:27;96407.66;;;8.53;70.24
85163;BME280;75527;48.526;9.158;2024-03-23T03:17:53;96395.22;;;8.59;69.50
85163;BME280;75527;48.526;9.158;2024-03-23T03:20:18;96401.41;;;8.88;69.38
85163;BME280;75527;48.526;9.158;2024-03-23T03:22:44;96398.19;;;9.02;68.24
85163;BME280;75527;48.526;9.158;2024-03-23T03:25:09;96404.31;;;8.92;68.24
85163;BME280;75527;48.526;9.158;2024-03-23T03:27:34;96401.75;;;8.72;68.62
85163;BME280;75527;48.526;9.158;2024-03-23T03:30:00;96399.44;;;8.60;69.20
85163;BME280;75527;48.526;9.158;2024-03-23T03:32:31;96395.72;;;8.66;69.34
85163;BME280;75527;48.526;9.158;2024-03-23T03:34:57;96399.63;;;8.79;69.84
85163;BME280;75527;48.526;9.158;2024-03-23T03:37:22;96385.16;;;8.71;69.17
85163;BME280;75527;48.526;9.158;2024-03-23T03:39:47;96397.63;;;9.10;69.60
85163;BME280;75527;48.526;9.158;2024-03-23T03:42:13;96392.41;;;9.39;68.92
85163;BME280;75527;48.526;9.158;2024-03-23T03:44:38;96384.88;;;9.61;68.92
85163;BME280;75527;48.526;9.158;2024-03-23T03:47:05;96367.09;;;9.72;67.76
85163;BME280;75527;48.526;9.158;2024-03-23T03:49:30;96323.53;;;9.99;67.28
85163;BME280;75527;48.526;9.158;2024-03-23T03:51:55;96362.16;;;10.42;67.14
85163;BME280;75527;48.526;9.158;2024-03-23T03:54:21;96358.91;;;10.51;66.30
85163;BME280;75527;48.526;9.158;2024-03-23T03:56:46;96346.59;;;10.41;66.92
85163;BME280;75527;48.526;9.158;2024-03-23T03:59:11;96349.06;;;10.32;67.26
85163;BME280;75527;48.526;9.158;2024-03-23T04:01:37;96349.69;;;10.24;68.20
85163;BME280;75527;48.526;9.158;2024-03-23T04:04:02;96326.59;;;10.06;68.16
85163;BME280;75527;48.526;9.158;2024-03-23T04:06:27;96341.06;;;10.13;68.31
85163;BME280;75527;48.526;9.158;2024-03-23T04:08:53;96330.56;;;10.08;68.96
85163;BME280;75527;48.526;9.158;2024-03-23T04:11:19;96314.81;;;9.98;69.79
85163;BME280;75527;48.526;9.158;2024-03-23T04:13:44;96296.59;;;9.97;69.63
85163;BME280;75527;48.526;9.158;2024-03-23T04:16:09;96305.19;;;10.07;69.29
85163;BME280;75527;48.526;9.158;2024-03-23T04:18:35;96287.78;;;10.06;69.00
85163;BME280;75527;48.526;9.158;2024-03-23T04:21:00;96285.31;;;10.15;68.86
85163;BME280;75527;48.526;9.158;2024-03-23T04:23:25;96277.94;;;10.12;69.18
85163;BME280;75527;48.526;9.158;2024-03-23T04:25:51;96273.44;;;10.12;69.05
85163;BME280;75527;48.526;9.158;2024-03-23T04:28:18;96254.69;;;10.14;69.65
85163;BME280;75527;48.526;9.158;2024-03-23T04:30:46;96253.53;;;10.20;68.75
85163;BME280;75527;48.526;9.158;2024-03-23T04:33:12;96239.25;;;10.21;68.84
85163;BME280;75527;48.526;9.158;2024-03-23T04:35:37;96243.38;;;10.32;68.92
85163;BME280;75527;48.526;9.158;2024-03-23T04:38:02;96217.63;;;10.19;68.47
85163;BME280;75527;48.526;9.158;2024-03-23T04:40:31;96223.97;;;10.18;68.55
85163;BME280;75527;48.526;9.158;2024-03-23T04:42:59;96254.53;;;10.29;68.97
85163;BME280;75527;48.526;9.158;2024-03-23T04:45:28;96246.81;;;10.52;67.72
85163;BME280;75527;48.526;9.158;2024-03-23T04:47:54;96230.09;;;10.56;66.64
85163;BME280;75527;48.526;9.158;2024-03-23T04:50:19;96213.78;;;10.68;65.86
85163;BME280;75527;48.526;9.158;2024-03-23T04:52:44;96225.13;;;10.87;66.41
85163;BME280;75527;48.526;9.158;2024-03-23T04:55:09;96208.06;;;10.80;65.67
85163;BME280;75527;48.526;9.158;2024-03-23T04:57:36;96225.38;;;11.05;65.48
85163;BME280;75527;48.526;9.158;2024-03-23T05:00:02;96216.53;;;10.95;65.18
85163;BME280;75527;48.526;9.158;2024-03-23T05:02:29;96243.06;;;10.90;65.72
85163;BME280;75527;48.526;9.158;2024-03-23T05:04:55;96247.56;;;10.90;65.15
85163;BME280;75527;48.526;9.158;2024-03-23T05:07:20;96234.94;;;10.68;66.21
85163;BME280;75527;48.526;9.158;2024-03-23T05:09:45;96226.59;;;10.61;65.57
85163;BME280;75527;48.526;9.158;2024-03-23T05:12:11;96243.31;;;10.56;65.84
85163;BME280;75527;48.526;9.158;2024-03-23T05:14:36;96239.09;;;10.55;66.54
85163;BME280;75527;48.526;9.158;2024-03-23T05:17:01;96248.88;;;10.36;65.73
85163;BME280;75527;48.526;9.158;2024-03-23T05:19:28;96282.56;;;10.25;66.63
85163;BME280;75527;48.526;9.158;2024-03-23T05:21:53;96288.88;;;10.29;67.98
85163;BME280;75527;48.526;9.158;2024-03-23T05:24:21;96290.28;;;10.16;69.37
85163;BME280;75527;48.526;9.158;2024-03-23T05:26:46;96269.47;;;9.91;71.63
85163;BME280;75527;48.526;9.158;2024-03-23T05:29:12;96285.69;;;9.79;72.38
85163;BME280;75527;48.526;9.158;2024-03-23T05:31:38;96284.19;;;9.73;73.58
85163;BME280;75527;48.526;9.158;2024-03-23T05:34:09;96315.66;;;9.64;74.93
85163;BME280;75527;48.526;9.158;2024-03-23T05:36:35;96344.94;;;9.68;76.65
85163;BME280;75527;48.526;9.158;2024-03-23T05:39:01;96361.84;;;9.67;78.88
85163;BME280;75527;48.526;9.158;2024-03-23T05:41:26;96394.66;;;9.56;80.39
85163;BME280;75527;48.526;9.158;2024-03-23T05:43:52;96396.13;;;9.38;80.55
85163;BME280;75527;48.526;9.158;2024-03-23T05:46:17;96392.34;;;9.10;83.46
85163;BME280;75527;48.526;9.158;2024-03-23T05:48:43;96398.69;;;9.04;84.32
85163;BME280;75527;48.526;9.158;2024-03-23T05:51:08;96395.59;;;8.92;82.85
85163;BME280;75527;48.526;9.158;2024-03-23T05:53:34;96413.28;;;8.91;84.23
85163;BME280;75527;48.526;9.158;2024-03-23T05:56:01;96392.00;;;8.72;84.26
85163;BME280;75527;48.526;9.158;2024-03-23T05:58:30;96396.22;;;8.68;83.58
85163;BME280;75527;48.526;9.158;2024-03-23T06:01:00;96430.25;;;8.65;82.66
85163;BME280;75527;48.526;9.158;2024-03-23T06:03:26;96424.16;;;8.74;82.60
85163;BME280;75527;48.526;9.158;2024-03-23T06:05:52;96440.22;;;8.78;81.02
85163;BME280;75527;48.526;9.158;2024-03-23T06:08:18;96460.25;;;8.79;81.65
85163;BME280;75527;48.526;9.158;2024-03-23T06:10:45;96464.50;;;8.75;82.67
85163;BME280;75527;48.526;9.158;2024-03-23T06:13:10;96449.75;;;8.69;81.70
85163;BME280;75527;48.526;9.158;2024-03-23T06:15:35;96464.75;;;8.68;81.85
85163;BME280;75527;48.526;9.158;2024-03-23T06:18:03;96474.25;;;8.69;81.86
85163;BME280;75527;48.526;9.158;2024-03-23T06:20:29;96449.81;;;8.53;82.13
85163;BME280;75527;48.526;9.158;2024-03-23T06:22:55;96472.16;;;8.66;80.84
85163;BME280;75527;48.526;9.158;2024-03-23T06:25:20;96473.72;;;8.62;81.41
85163;BME280;75527;48.526;9.158;2024-03-23T06:27:46;96481.41;;;8.64;78.87
85163;BME280;75527;48.526;9.158;2024-03-23T06:30:12;96498.50;;;8.66;80.30
85163;BME280;75527;48.526;9.158;2024-03-23T06:32:37;96499.06;;;8.53;80.11
85163;BME280;75527;48.526;9.158;2024-03-23T06:35:02;96489.34;;;8.48;76.65
85163;BME280;75527;48.526;9.158;2024-03-23T06:37:33;96520.16;;;8.48;78.43
85163;BME280;75527;48.526;9.158;2024-03-23T06:39:58;96523.31;;;8.34;77.34
85163;BME280;75527;48.526;9.158;2024-03-23T06:42:23;96512.25;;;8.12;75.42
85163;BME280;75527;48.526;9.158;2024-03-23T06:44:48;96522.78;;;8.12;75.49
85163;BME280;75527;48.526;9.158;2024-03-23T06:47:14;96530.69;;;8.07;75.12
85163;BME280;75527;48.526;9.158;2024-03-23T06:49:39;96533.03;;;7.93;73.71
85163;BME280;75527;48.526;9.158;2024-03-23T06:52:04;96568.06;;;7.94;75.50
85163;BME280;75527;48.526;9.158;2024-03-23T06:54:30;96567.53;;;7.92;76.32
85163;BME280;75527;48.526;9.158;2024-03-23T06:56:55;96568.56;;;7.91;76.20
85163;BME280;75527;48.526;9.158;2024-03-23T06:59:20;96576.44;;;7.86;74.19
85163;BME280;75527;48.526;9.158;2024-03-23T07:01:45;96569.09;;;7.88;74.68
85163;BME280;75527;48.526;9.158;2024-03-23T07:04:11;96561.47;;;7.86;76.33
85163;BME280;75527;48.526;9.158;2024-03-23T07:06:43;96558.56;;;7.88;74.14
85163;BME280;75527;48.526;9.158;2024-03-23T07:09:08;96558.56;;;7.88;74.72
85163;BME280;75527;48.526;9.158;2024-03-23T07:11:34;96560.16;;;7.83;74.45
85163;BME280;75527;48.526;9.158;2024-03-23T07:13:59;96566.75;;;7.86;74.93
85163;BME280;75527;48.526;9.158;2024-03-23T07:16:26;96558.03;;;7.91;74.66
85163;BME280;75527;48.526;9.158;2024-03-23T07:18:52;96555.94;;;7.82;75.52
85163;BME280;75527;48.526;9.158;2024-03-23T07:21:17;96568.84;;;7.89;75.31
85163;BME280;75527;48.526;9.158;2024-03-23T07:23:42;96576.72;;;7.84;74.90
85163;BME280;75527;48.526;9.158;2024-03-23T07:26:11;96573.03;;;7.80;75.20
85163;BME280;75527;48.526;9.158;2024-03-23T07:28:37;96578.84;;;7.82;75.20
85163;BME280;75527;48.526;9.158;2024-03-23T07:31:10;96609.09;;;7.90;74.30
85163;BME280;75527;48.526;9.158;2024-03-23T07:33:37;96604.38;;;7.92;73.81
85163;BME280;75527;48.526;9.158;2024-03-23T07:36:03;96609.66;;;7.92;74.46
85163;BME280;75527;48.526;9.158;2024-03-23T07:38:29;96602.00;;;8.00;74.23
85163;BME280;75527;48.526;9.158;2024-03-23T07:41:08;96608.59;;;7.93;74.40
85163;BME280;75527;48.526;9.158;2024-03-23T07:43:34;96608.06;;;7.96;75.59
85163;BME280;75527;48.526;9.158;2024-03-23T07:46:00;96623.63;;;8.02;75.48
85163;BME280;75527;48.526;9.158;2024-03-23T07:48:26;96626.00;;;8.04;76.20
85163;BME280;75527;48.526;9.158;2024-03-23T07:51:08;96640.75;;;8.10;76.53
85163;BME280;75527;48.526;9.158;2024-03-23T07:53:34;96641.03;;;8.14;75.99
85163;BME280;75527;48.526;9.158;2024-03-23T07:56:01;96648.16;;;8.23;74.66
85163;BME280;75527;48.526;9.158;2024-03-23T07:58:27;96648.38;;;8.22;76.00
85163;BME280;75527;48.526;9.158;2024-03-23T08:00:54;96654.50;;;8.27;75.24
85163;BME280;75527;48.526;9.158;2024-03-23T08:03:19;96649.72;;;8.29;73.99
85163;BME280;75527;48.526;9.158;2024-03-23T08:05:45;96639.69;;;8.21;72.84
85163;BME280;75527;48.526;9.158;2024-03-23T08:08:10;96670.84;;;8.40;74.77
85163;BME280;75527;48.526;9.158;2024-03-23T08:10:57;96688.50;;;8.39;73.30
85163;BME280;75527;48.526;9.158;2024-03-23T08:13:22;96691.88;;;8.34;75.23
85163;BME280;75527;48.526;9.158;2024-03-23T08:15:47;96705.25;;;8.07;73.68
85163;BME280;75527;48.526;9.158;2024-03-23T08:18:13;96724.13;;;7.89;73.31
85163;BME280;75527;48.526;9.158;2024-03-23T08:20:38;96721.22;;;7.86;76.13
85163;BME280;75527;48.526;9.158;2024-03-23T08:23:07;96741.75;;;7.83;73.26
85163;BME280;75527;48.526;9.158;2024-03-23T08:25:32;96741.19;;;7.71;73.68
85163;BME280;75527;48.526;9.158;2024-03-23T08:27:58;96749.38;;;7.80;71.67
85163;BME280;75527;48.526;9.158;2024-03-23T08:30:24;96747.19;;;7.62;70.92
85163;BME280;75527;48.526;9.158;2024-03-23T08:32:49;96730.13;;;7.74;67.87
85163;BME280;75527;48.526;9.158;2024-03-23T08:35:14;96763.03;;;7.72;66.55
85163;BME280;75527;48.526;9.158;2024-03-23T08:37:40;96749.53;;;7.63;66.93
85163;BME280;75527;48.526;9.158;2024-03-23T08:40:06;96790.88;;;7.68;66.32
85163;BME280;75527;48.526;9.158;2024-03-23T08:42:31;96803.00;;;7.69;65.44
85163;BME280;75527;48.526;9.158;2024-03-23T08:44:57;96810.13;;;7.73;65.23
85163;BME280;75527;48.526;9.158;2024-03-23T08:47:22;96849.78;;;7.62;63.02
85163;BME280;75527;48.526;9.158;2024-03-23T08:49:47;96835.31;;;7.64;62.87
85163;BME280;75527;48.526;9.158;2024-03-23T08:52:12;96835.88;;;7.66;64.76
85163;BME280;75527;48.526;9.158;2024-03-23T08:54:38;96865.41;;;7.73;63.20
85163;BME280;75527;48.526;9.158;2024-03-23T08:57:03;96874.00;;;7.64;63.33
85163;BME280;75527;48.526;9.158;2024-03-23T08:59:28;96862.72;;;7.68;62.68
85163;BME280;75527;48.526;9.158;2024-03-23T09:01:54;96881.94;;;7.69;61.75
85163;BME280;75527;48.526;9.158;2024-03-23T09:04:19;96860.63;;;7.65;62.63
85163;BME280;75527;48.526;9.158;2024-03-23T09:06:44;96874.88;;;7.74;62.12
85163;BME280;75527;48.526;9.158;2024-03-23T09:09:09;96861.91;;;7.63;62.33
85163;BME280;75527;48.526;9.158;2024-03-23T09:11:35;96886.00;;;7.49;59.81
85163;BME280;75527;48.526;9.158;2024-03-23T09:14:00;96884.44;;;7.53;61.34
85163;BME280;75527;48.526;9.158;2024-03-23T09:16:26;96887.44;;;7.62;60.51
85163;BME280;75527;48.526;9.158;2024-03-23T09:18:52;96854.72;;;7.53;61.59
85163;BME280;75527;48.526;9.158;2024-03-23T09:21:17;96878.25;;;7.70;62.23
85163;BME280;75527;48.526;9.158;2024-03-23T09:23:43;96859.59;;;7.71;60.73
85163;BME280;75527;48.526;9.158;2024-03-23T09:26:09;96878.28;;;7.75;60.19
85163;BME280;75527;48.526;9.158;2024-03-23T09:28:34;96876.47;;;7.75;60.42
85163;BME280;75527;48.526;9.158;2024-03-23T09:31:07;96862.16;;;7.61;59.14
85163;BME280;75527;48.526;9.158;2024-03-23T09:33:33;96894.56;;;7.67;59.86
85163;BME280;75527;48.526;9.158;2024-03-23T09:36:03;96884.09;;;7.72;60.52
85163;BME280;75527;48.526;9.158;2024-03-23T09:38:28;96894.16;;;7.85;59.09
85163;BME280;75527;48.526;9.158;2024-03-23T09:40:54;96868.88;;;7.84;59.25
85163;BME280;75527;48.526;9.158;2024-03-23T09:43:19;96869.41;;;7.81;57.49
85163;BME280;75527;48.526;9.158;2024-03-23T09:45:45;96871.31;;;7.96;58.83
85163;BME280;75527;48.526;9.158;2024-03-23T09:48:11;96842.13;;;7.97;58.70
85163;BME280;75527;48.526;9.158;2024-03-23T09:50:40;96862.94;;;7.99;59.16
85163;BME280;75527;48.526;9.158;2024-03-23T09:53:06;96859.63;;;8.19;57.71
85163;BME280;75527;48.526;9.158;2024-03-23T09:55:32;96903.91;;;8.27;58.29
85163;BME280;75527;48.526;9.158;2024-03-23T09:57:57;96871.00;;;8.29;57.60
85163;BME280;75527;48.526;9.158;2024-03-23T10:00:23;96888.69;;;8.34;57.97
85163;BME280;75527;48.526;9.158;2024-03-23T10:02:48;96868.47;;;8.45;60.51
85163;BME280;75527;48.526;9.158;2024-03-23T10:05:21;96885.03;;;8.40;59.61
85163;BME280;75527;48.526;9.158;2024-03-23T10:07:52;96872.47;;;8.10;63.18
85163;BME280;75527;48.526;9.158;2024-03-23T10:10:17;96867.44;;;8.03;62.25
85163;BME280;75527;48.526;9.158;2024-03-23T10:12:48;96872.53;;;7.78;67.10
85163;BME280;75527;48.526;9.158;2024-03-23T10:15:20;96851.63;;;7.24;66.10
85163;BME280;75527;48.526;9.158;2024-03-23T10:17:46;96849.25;;;7.27;66.99
85163;BME280;75527;48.526;9.158;2024-03-23T10:20:11;96845.16;;;7.42;68.54
85163;BME280;75527;48.526;9.158;2024-03-23T10:22:37;96842.53;;;7.42;66.94
85163;BME280;75527;48.526;9.158;2024-03-23T10:25:10;96845.47;;;7.45;67.59
85163;BME280;75527;48.526;9.158;2024-03-23T10:27:36;96845.75;;;7.49;67.07
85163;BME280;75527;48.526;9.158;2024-03-23T10:30:12;96848.16;;;7.50;66.26
85163;BME280;75527;48.526;9.158;2024-03-23T10:32:38;96835.97;;;7.76;67.53
85163;BME280;75527;48.526;9.158;2024-03-23T10:35:16;96838.44;;;7.98;66.83
85163;BME280;75527;48.526;9.158;2024-03-23T10:37:44;96839.28;;;8.09;64.73
85163;BME280;75527;48.526;9.158;2024-03-23T10:40:11;96829.25;;;8.06;61.93
85163;BME280;75527;48.526;9.158;2024-03-23T10:42:37;96838.56;;;8.19;63.51
85163;BME280;75527;48.526;9.158;2024-03-23T10:45:06;96818.84;;;8.31;61.11
85163;BME280;75527;48.526;9.158;2024-03-23T10:47:34;96823.47;;;8.67;59.88
85163;BME280;75527;48.526;9.158;2024-03-23T10:50:00;96841.13;;;8.61;54.46
85163;BME280;75527;48.526;9.158;2024-03-23T10:52:26;96823.66;;;8.40;55.07
85163;BME280;75527;48.526;9.158;2024-03-23T10:54:52;96824.66;;;8.33;56.18
85163;BME280;75527;48.526;9.158;2024-03-23T10:57:21;96834.13;;;8.29;55.88
85163;BME280;75527;48.526;9.158;2024-03-23T10:59:48;96914.38;;;7.79;57.78
85163;BME280;75527;48.526;9.158;2024-03-23T11:02:20;96939.44;;;6.35;72.16
85163;BME280;75527;48.526;9.158;2024-03-23T11:04:46;96927.53;;;5.43;75.55
85163;BME280;75527;48.526;9.158;2024-03-23T11:07:30;96911.53;;;5.28;75.02
85163;BME280;75527;48.526;9.158;2024-03-23T11:09:56;96919.00;;;5.36;74.55
85163;BME280;75527;48.526;9.158;2024-03-23T11:15:05;96914.97;;;5.62;74.21
85163;BME280;75527;48.526;9.158;2024-03-23T11:17:35;96915.22;;;6.11;72.24
85163;BME280;75527;48.526;9.158;2024-03-23T11:20:05;96924.66;;;6.51;66.98
85163;BME280;75527;48.526;9.158;2024-03-23T11:22:44;96902.56;;;6.69;67.45
85163;BME280;75527;48.526;9.158;2024-03-23T11:25:20;96899.44;;;6.94;66.24
85163;BME280;75527;48.526;9.158;2024-03-23T11:27:48;96916.44;;;7.13;66.24
85163;BME280;75527;48.526;9.158;2024-03-23T11:30:18;96916.31;;;6.98;62.94
85163;BME280;75527;48.526;9.158;2024-03-23T11:32:45;96929.13;;;6.94;60.96
85163;BME280;75527;48.526;9.158;2024-03-23T11:35:28;96910.31;;;6.81;60.60
85163;BME280;75527;48.526;9.158;2024-03-23T11:38:10;96917.31;;;6.97;62.21
85163;BME280;75527;48.526;9.158;2024-03-23T11:40:37;96922.69;;;7.07;59.10
85163;BME280;75527;48.526;9.158;2024-03-23T11:43:07;96933.81;;;7.14;60.74
85163;BME280;75527;48.526;9.158;2024-03-23T11:45:52;96935.66;;;6.92;57.42
85163;BME280;75527;48.526;9.158;2024-03-23T11:48:20;96923.50;;;6.86;58.96
85163;BME280;75527;48.526;9.158;2024-03-23T11:50:47;96932.50;;;6.90;58.17
85163;BME280;75527;48.526;9.158;2024-03-23T11:53:15;96966.59;;;6.85;57.99
85163;BME280;75527;48.526;9.158;2024-03-23T11:55:42;96944.47;;;6.81;58.62
85163;BME280;75527;48.526;9.158;2024-03-23T11:58:08;96952.41;;;6.64;56.45
85163;BME280;75527;48.526;9.158;2024-03-23T12:00:34;96939.94;;;6.54;57.17
85163;BME280;75527;48.526;9.158;2024-03-23T12:03:03;96942.97;;;6.63;57.97
85163;BME280;75527;48.526;9.158;2024-03-23T12:05:29;96918.06;;;6.70;58.06
85163;BME280;75527;48.526;9.158;2024-03-23T12:07:55;96932.31;;;6.74;57.63
85163;BME280;75527;48.526;9.158;2024-03-23T12:10:20;96922.00;;;6.68;58.55
85163;BME280;75527;48.526;9.158;2024-03-23T12:12:46;96924.84;;;6.66;58.35
85163;BME280;75527;48.526;9.158;2024-03-23T12:15:11;96902.81;;;6.67;60.09
85163;BME280;75527;48.526;9.158;2024-03-23T12:17:38;96924.44;;;6.74;60.64
85163;BME280;75527;48.526;9.158;2024-03-23T12:20:04;96907.75;;;6.64;62.26
85163;BME280;75527;48.526;9.158;2024-03-23T12:22:29;96939.47;;;6.57;61.61
85163;BME280;75527;48.526;9.158;2024-03-23T12:24:55;96941.53;;;6.55;62.92
85163;BME280;75527;48.526;9.158;2024-03-23T12:27:20;96933.50;;;6.62;62.68
85163;BME280;75527;48.526;9.158;2024-03-23T12:29:46;96921.38;;;6.39;63.79
85163;BME280;75527;48.526;9.158;2024-03-23T12:32:13;96936.25;;;6.33;64.94
85163;BME280;75527;48.526;9.158;2024-03-23T12:34:38;96924.06;;;6.05;65.51
85163;BME280;75527;48.526;9.158;2024-03-23T12:37:04;96934.50;;;6.00;65.74
85163;BME280;75527;48.526;9.158;2024-03-23T12:39:31;96929.72;;;5.97;66.17
85163;BME280;75527;48.526;9.158;2024-03-23T12:41:56;96917.53;;;6.08;66.82
85163;BME280;75527;48.526;9.158;2024-03-23T12:44:21;96932.00;;;6.49;67.61
85163;BME280;75527;48.526;9.158;2024-03-23T12:46:46;96924.09;;;7.15;65.32
85163;BME280;75527;48.526;9.158;2024-03-23T12:49:12;96916.94;;;7.69;63.36
85163;BME280;75527;48.526;9.158;2024-03-23T12:51:38;96920.06;;;7.61;63.75
85163;BME280;75527;48.526;9.158;2024-03-23T12:54:04;96915.84;;;7.60;63.25
85163;BME280;75527;48.526;9.158;2024-03-23T12:56:29;96920.41;;;7.75;64.57
85163;BME280;75527;48.526;9.158;2024-03-23T12:58:55;96915.09;;;7.38;64.06
85163;BME280;75527;48.526;9.158;2024-03-23T13:01:23;96906.78;;;7.46;64.60
85163;BME280;75527;48.526;9.158;2024-03-23T13:03:49;96904.25;;;7.29;64.36
85163;BME280;75527;48.526;9.158;2024-03-23T13:06:15;96893.75;;;7.29;64.99
85163;BME280;75527;48.526;9.158;2024-03-23T13:08:40;96895.47;;;7.45;64.42
85163;BME280;75527;48.526;9.158;2024-03-23T13:11:07;96891.94;;;7.35;65.31
85163;BME280;75527;48.526;9.158;2024-03-23T13:13:36;96897.09;;;7.24;65.22
85163;BME280;75527;48.526;9.158;2024-03-23T13:16:01;96880.19;;;7.47;62.82
85163;BME280;75527;48.526;9.158;2024-03-23T13:18:28;96879.97;;;7.54;61.53
85163;BME280;75527;48.526;9.158;2024-03-23T13:20:54;96884.00;;;7.99;60.96
85163;BME280;75527;48.526;9.158;2024-03-23T13:23:19;96872.09;;;9.06;59.49
85163;BME280;75527;48.526;9.158;2024-03-23T13:25:54;96867.63;;;9.37;56.45
85163;BME280;75527;48.526;9.158;2024-03-23T13:28:21;96880.84;;;9.58;56.48
85163;BME280;75527;48.526;9.158;2024-03-23T13:30:56;96867.13;;;9.30;57.42
85163;BME280;75527;48.526;9.158;2024-03-23T13:33:21;96879.41;;;8.79;58.26
85163;BME280;75527;48.526;9.158;2024-03-23T13:35:54;96866.81;;;7.86;59.36
85163;BME280;75527;48.526;9.158;2024-03-23T13:38:20;96866.00;;;7.48;58.63
85163;BME280;75527;48.526;9.158;2024-03-23T13:40:58;96867.56;;;8.29;57.44
85163;BME280;75527;48.526;9.158;2024-03-23T13:43:25;96861.63;;;7.96;57.12
85163;BME280;75527;48.526;9.158;2024-03-23T13:45:58;96843.56;;;8.20;57.92
85163;BME280;75527;48.526;9.158;2024-03-23T13:48:24;96830.50;;;8.41;56.23
85163;BME280;75527;48.526;9.158;2024-03-23T13:51:03;96839.81;;;8.64;55.05
85163;BME280;75527;48.526;9.158;2024-03-23T13:53:29;96828.03;;;8.24;57.46
85163;BME280;75527;48.526;9.158;2024-03-23T13:55:55;96829.50;;;7.99;57.68
85163;BME280;75527;48.526;9.158;2024-03-23T13:58:21;96850.00;;;7.92;57.44
85163;BME280;75527;48.526;9.158;2024-03-23T14:00:47;96853.63;;;7.81;58.64
85163;BME280;75527;48.526;9.158;2024-03-23T14:03:13;96845.22;;;7.89;59.13